Alvarado, Texas
Current Conditions -  °F | °C
As of 10:49 AM on Friday 19 Dec 2014 (Local Time) from KFWS Reporting Station
Haze Haze  
Wind Chill: 41°   Ceiling: 400
Heat Index: 46°   Visibility: 4mi
Dew Point: 45°   Wind: 12mph
Humidity: 93%   Direction: 30°NNE
Pressure: 30.21"   Gusts: NA
Location:  32.41°N, 97.21°W
Report Text: KFWS 191649Z 03010KT 4SM BR OVC004 08/07 A3021
Loading
Personal Weather Stations






























Interactive Weather Map New forecast layout! Learn more

10-Day Weather Forecast

Advertisements
Track Severe Weather on mobile